Time;durP1;ratioP1;P1;durP2;ratioP2;P2;SDS_P1;SDS_P2;PMS_P1;PMS_P2;Temp;Humidity;BMP_temperature;BMP_pressure;BME280_temperature;BME280_humidity;BME280_pressure;Samples;Min_cycle;Max_cycle;Signal;HPM_P1;HPM_P2
2021/12/08 00:00:53;;;;;;;68.05;29.83;;;;;;;-0.67;99.20;99969.34;5093309;28;20492;-68
2021/12/08 00:03:21;;;;;;;70.55;30.48;;;;;;;-0.69;99.64;99963.28;5074840;28;20024;-68
2021/12/08 00:05:47;;;;;;;66.55;29.27;;;;;;;-0.69;99.54;99972.06;5093165;28;20086;-68
2021/12/08 00:08:15;;;;;;;73.70;29.83;;;;;;;-0.67;100.00;99974.63;5092757;28;20024;-69
2021/12/08 00:13:01;;;;;;;68.57;31.13;;;;;;;-0.63;100.00;99984.06;5092888;28;20429;-69
2021/12/08 00:13:37;;;;;;;64.82;29.30;;;;;;;-0.63;99.97;99989.34;5092590;28;20137;-69
2021/12/08 00:16:07;;;;;;;65.72;28.85;;;;;;;-0.66;100.00;99986.84;5092974;28;20055;-69
2021/12/08 00:18:34;;;;;;;72.43;31.38;;;;;;;-0.69;100.00;99989.63;5092854;28;20503;-69
2021/12/08 00:21:02;;;;;;;74.25;31.02;;;;;;;-0.72;100.00;99998.53;5092688;28;20031;-69
2021/12/08 00:23:29;;;;;;;69.40;31.85;;;;;;;-0.73;100.00;99995.97;5092689;28;20111;-69
2021/12/08 00:25:56;;;;;;;78.75;32.75;;;;;;;-0.75;100.00;100005.72;5074413;28;20059;-69
2021/12/08 00:28:22;;;;;;;74.10;30.73;;;;;;;-0.72;100.00;100013.47;5092495;28;20028;-69
2021/12/08 00:30:51;;;;;;;81.40;34.38;;;;;;;-0.74;100.00;99992.47;5073932;28;20036;-69
2021/12/08 00:33:18;;;;;;;72.93;32.15;;;;;;;-0.68;99.62;99996.63;5091634;28;20023;-69
2021/12/08 00:35:46;;;;;;;74.00;32.13;;;;;;;-0.67;99.22;99993.06;5092150;28;20109;-69
2021/12/08 00:38:13;;;;;;;76.63;31.48;;;;;;;-0.68;99.30;99994.00;5092571;28;20028;-68
2021/12/08 00:40:38;;;;;;;73.95;32.58;;;;;;;-0.75;99.50;99988.13;5092191;28;20024;-69
2021/12/08 00:43:06;;;;;;;78.18;33.85;;;;;;;-0.87;99.68;99978.19;5092453;28;20027;-69
2021/12/08 00:45:33;;;;;;;77.78;31.73;;;;;;;-0.81;99.57;100000.75;5092140;28;20380;-68
2021/12/08 00:47:59;;;;;;;72.18;32.72;;;;;;;-0.88;99.64;99989.66;5073807;28;20039;-68
2021/12/08 00:50:29;;;;;;;79.00;33.47;;;;;;;-0.87;99.69;100006.31;5092178;28;20103;-68
2021/12/08 00:52:57;;;;;;;75.20;32.53;;;;;;;-0.87;99.88;100001.88;5071872;28;20035;-68
2021/12/08 00:55:23;;;;;;;69.80;29.55;;;;;;;-0.91;99.99;99991.56;5091875;28;20122;-68
2021/12/08 00:57:48;;;;;;;76.90;32.05;;;;;;;-0.99;100.00;99984.03;5092072;28;20028;-68
2021/12/08 01:00:22;;;;;;;75.65;30.60;;;;;;;-1.02;99.62;99991.22;5091943;28;20032;-69
2021/12/08 01:02:48;;;;;;;71.95;31.20;;;;;;;-1.03;99.53;99989.50;5091740;28;20465;-69
2021/12/08 01:05:17;;;;;;;78.50;32.80;;;;;;;-1.11;99.08;99989.00;5091777;28;20123;-67
2021/12/08 01:07:43;;;;;;;75.88;31.48;;;;;;;-1.12;98.85;99979.41;5091752;28;20020;-67
2021/12/08 01:10:13;;;;;;;76.53;30.70;;;;;;;-1.18;98.10;99988.44;5091913;28;20051;-68
2021/12/08 01:12:39;;;;;;;80.85;30.58;;;;;;;-1.17;97.61;99984.88;5092065;28;20028;-68
2021/12/08 01:15:05;;;;;;;71.72;30.75;;;;;;;-1.22;96.87;99984.25;5073276;28;20016;-68
2021/12/08 01:17:32;;;;;;;70.95;30.40;;;;;;;-1.28;96.07;99975.75;5073268;28;20036;-68
2021/12/08 01:19:57;;;;;;;77.88;33.53;;;;;;;-1.25;95.55;99987.00;5091350;28;20016;-67
2021/12/08 01:22:23;;;;;;;75.25;31.92;;;;;;;-1.31;95.36;99981.16;5091503;28;20119;-68
2021/12/08 01:24:48;;;;;;;72.35;32.25;;;;;;;-1.35;95.39;99987.50;5091494;28;20036;-68
2021/12/08 01:27:14;;;;;;;73.55;30.45;;;;;;;-1.37;95.08;99987.56;5091644;28;20090;-68
2021/12/08 01:29:40;;;;;;;69.45;29.65;;;;;;;-1.39;95.05;99975.41;5091536;28;20046;-69
2021/12/08 01:32:07;;;;;;;73.03;29.98;;;;;;;-1.47;95.31;99973.13;5091282;28;20055;-69
2021/12/08 01:34:33;;;;;;;77.13;31.45;;;;;;;-1.41;95.49;99979.88;5073252;28;20028;-69
2021/12/08 01:36:59;;;;;;;74.55;29.60;;;;;;;-1.45;95.71;99979.13;5091192;28;20016;-70
2021/12/08 01:39:24;;;;;;;65.43;30.60;;;;;;;-1.48;94.99;99976.66;5091400;28;20031;-69
2021/12/08 01:41:52;;;;;;;74.40;31.92;;;;;;;-1.55;94.96;99969.97;5091222;28;20027;-69
2021/12/08 01:47:02;;;;;;;71.85;29.52;;;;;;;-1.54;94.32;99976.94;5090456;28;20112;-69
2021/12/08 01:49:28;;;;;;;69.10;29.15;;;;;;;-1.58;93.90;99970.09;5091036;28;20028;-69
2021/12/08 01:51:53;;;;;;;69.55;30.48;;;;;;;-1.62;93.94;99959.81;5090906;28;20024;-69
2021/12/08 01:54:19;;;;;;;72.70;31.08;;;;;;;-1.65;94.53;99962.56;5090885;28;20401;-69
2021/12/08 01:56:44;;;;;;;68.15;28.52;;;;;;;-1.54;95.13;99976.94;5091133;28;20050;-69
2021/12/08 01:59:10;;;;;;;71.75;29.00;;;;;;;-1.52;96.29;99969.81;5091180;28;20491;-69
2021/12/08 02:01:39;;;;;;;80.97;29.20;;;;;;;-1.46;97.33;99976.56;5091064;28;20035;-68
2021/12/08 02:04:06;;;;;;;69.07;29.75;;;;;;;-1.44;98.00;99978.25;5088267;28;20043;-68
2021/12/08 02:06:38;;;;;;;71.68;30.50;;;;;;;-1.43;98.54;99968.56;5090733;28;20099;-68
2021/12/08 02:09:06;;;;;;;68.75;29.08;;;;;;;-1.40;99.23;99963.16;5090849;28;20024;-69
2021/12/08 02:11:32;;;;;;;60.67;27.08;;;;;;;-1.45;99.75;99965.16;5090713;28;20123;-69
2021/12/08 02:14:01;;;;;;;72.35;30.25;;;;;;;-1.45;99.62;99971.25;5091035;28;20500;-69
2021/12/08 02:16:28;;;;;;;72.93;31.02;;;;;;;-1.45;100.00;99971.25;5090707;28;20077;-69
2021/12/08 02:18:54;;;;;;;73.40;30.70;;;;;;;-1.52;99.53;99964.56;5090922;28;20058;-69
2021/12/08 02:21:22;;;;;;;65.28;28.48;;;;;;;-1.58;99.37;99956.13;5090524;28;20123;-68
2021/12/08 02:23:48;;;;;;;66.90;29.55;;;;;;;-1.59;98.89;99964.91;5090533;28;20032;-69
2021/12/08 02:26:14;;;;;;;69.38;29.08;;;;;;;-1.72;97.56;99951.47;5090689;28;20051;-69
2021/12/08 02:28:39;;;;;;;64.97;28.90;;;;;;;-1.67;97.14;99959.16;5090755;28;20027;-69
2021/12/08 02:31:09;;;;;;;68.18;30.17;;;;;;;-1.66;96.98;99960.84;5090560;28;20039;-69
2021/12/08 02:47:52;;;;;;;69.30;29.08;;;;;;;-1.74;96.68;99924.38;5048072;28;20612;-67
2021/12/08 02:50:27;;;;;;;75.88;30.80;;;;;;;-1.65;96.76;99947.63;5084216;28;20040;-68
2021/12/08 02:52:54;;;;;;;71.43;30.65;;;;;;;-1.69;96.82;99937.31;5072231;28;20032;-67
2021/12/08 02:55:20;;;;;;;81.15;32.30;;;;;;;-1.69;96.85;99940.81;5091696;28;20423;-68
2021/12/08 02:57:46;;;;;;;77.00;31.73;;;;;;;-1.73;96.83;99936.63;5076173;28;20028;-68
2021/12/08 03:00:17;;;;;;;75.05;31.92;;;;;;;-1.76;97.01;99938.50;5094452;28;20046;-68
2021/12/08 03:02:42;;;;;;;78.68;29.52;;;;;;;-1.77;96.84;99944.69;5094551;28;20430;-68
2021/12/08 03:05:09;;;;;;;74.03;30.60;;;;;;;-1.71;97.32;99957.56;5094166;28;20134;-68
2021/12/08 03:07:34;;;;;;;73.38;31.23;;;;;;;-1.76;97.16;99949.03;5075693;28;20043;-68
2021/12/08 03:10:09;;;;;;;75.35;31.25;;;;;;;-1.78;97.14;99945.63;5093764;28;20036;-68
2021/12/08 03:12:34;;;;;;;73.35;31.13;;;;;;;-1.85;97.37;99928.41;5094134;28;20048;-68
2021/12/08 03:14:59;;;;;;;66.70;29.33;;;;;;;-1.75;97.87;99943.72;5094107;28;20035;-68
2021/12/08 03:17:25;;;;;;;72.75;30.23;;;;;;;-1.78;97.68;99937.75;5093895;28;20111;-69
2021/12/08 03:19:51;;;;;;;69.78;29.85;;;;;;;-1.78;97.76;99943.84;5075746;28;20038;-68
2021/12/08 03:22:16;;;;;;;72.55;30.70;;;;;;;-1.80;97.75;99940.44;5075610;28;20081;-68
2021/12/08 03:24:45;;;;;;;72.10;30.50;;;;;;;-1.79;97.44;99933.41;5093842;28;20401;-68
2021/12/08 03:27:14;;;;;;;80.88;32.75;;;;;;;-1.90;96.85;99914.63;5075250;28;20032;-69
2021/12/08 03:29:54;;;;;;;75.15;32.50;;;;;;;-1.87;97.10;99925.84;5093657;28;20020;-69
2021/12/08 03:32:37;;;;;;;80.38;31.10;;;;;;;-1.85;96.97;99931.91;5093537;28;20053;-69
2021/12/08 03:35:05;;;;;;;76.00;30.20;;;;;;;-1.86;96.90;99932.81;5092243;28;20076;-69
2021/12/08 03:37:42;;;;;;;67.05;30.42;;;;;;;-1.89;96.01;99938.22;5093420;28;20545;-68
2021/12/08 03:40:12;;;;;;;71.13;30.25;;;;;;;-1.92;95.70;99937.47;5093398;28;20028;-69
2021/12/08 03:42:38;;;;;;;76.50;32.13;;;;;;;-1.91;95.31;99939.22;5075008;28;20036;-69
2021/12/08 03:45:11;;;;;;;69.15;30.75;;;;;;;-1.96;96.29;99949.91;5093283;28;20399;-69
2021/12/08 03:47:41;;;;;;;70.03;31.40;;;;;;;-1.95;95.99;99964.75;5075124;28;20049;-69
2021/12/08 03:50:09;;;;;;;63.78;30.42;;;;;;;-1.94;95.92;99976.13;5093159;28;20035;-68
2021/12/08 03:52:37;;;;;;;74.07;31.13;;;;;;;-1.99;95.87;99981.56;5093083;28;20040;-69
2021/12/08 03:55:04;;;;;;;71.80;29.73;;;;;;;-2.03;95.65;99972.13;5093271;28;20437;-69
2021/12/08 03:57:30;;;;;;;74.10;31.00;;;;;;;-2.01;95.68;99975.50;5090732;28;20030;-69
2021/12/08 03:59:55;;;;;;;67.85;28.83;;;;;;;-2.02;96.11;99978.19;5092904;28;20024;-69
2021/12/08 04:02:21;;;;;;;71.30;29.42;;;;;;;-2.00;96.72;99976.38;5074886;28;20024;-69
2021/12/08 04:04:50;;;;;;;68.43;30.10;;;;;;;-1.99;96.84;99991.22;5094938;28;20544;-69
2021/12/08 04:07:17;;;;;;;71.28;29.90;;;;;;;-2.04;96.98;99986.16;5095380;28;20077;-69
2021/12/08 04:09:45;;;;;;;77.35;32.38;;;;;;;-2.01;97.10;99990.41;5076468;28;20008;-69
2021/12/08 04:12:15;;;;;;;76.13;31.02;;;;;;;-1.95;97.91;100000.66;5055549;28;20036;-69
2021/12/08 04:14:46;;;;;;;73.18;29.67;;;;;;;-2.00;98.11;99984.25;5051723;28;20099;-70
2021/12/08 04:17:17;;;;;;;65.53;29.42;;;;;;;-1.97;98.32;99978.88;5058461;28;20028;-69
2021/12/08 04:19:44;;;;;;;67.45;29.90;;;;;;;-1.96;98.74;99980.56;5055108;28;20497;-69
2021/12/08 04:22:20;;;;;;;75.63;31.55;;;;;;;-1.97;98.59;99973.63;5046136;28;20051;-69
2021/12/08 04:24:49;;;;;;;71.57;30.40;;;;;;;-2.01;98.59;99972.88;5048013;28;20496;-68
2021/12/08 04:27:20;;;;;;;68.10;29.15;;;;;;;-1.95;97.76;99990.16;5051753;28;20040;-69
2021/12/08 04:29:46;;;;;;;71.38;30.40;;;;;;;-1.99;97.74;99978.94;5055411;28;20469;-69
2021/12/08 04:32:15;;;;;;;68.80;30.80;;;;;;;-1.99;97.43;99988.59;5057202;28;20113;-69
2021/12/08 04:34:45;;;;;;;69.55;29.45;;;;;;;-1.98;97.50;99987.66;5056554;28;20493;-69
2021/12/08 04:37:24;;;;;;;67.80;29.73;;;;;;;-1.98;96.99;99985.88;5052716;28;20082;-69
2021/12/08 04:45:24;;;;;;;65.47;30.33;;;;;;;-2.01;97.41;99982.53;5057778;28;20028;-69
2021/12/08 04:48:46;;;;;;;68.32;29.15;;;;;;;-2.05;96.96;99984.44;5055705;28;20031;-69
2021/12/08 05:04:33;;;;;;;73.13;28.70;;;;;;;-2.09;96.82;100001.25;5051715;28;20781;-69
2021/12/08 05:09:47;;;;;;;73.90;30.75;;;;;;;-2.13;96.59;99990.94;5049807;28;20491;-68
2021/12/08 05:12:23;;;;;;;69.38;30.95;;;;;;;-2.12;96.07;99990.00;5091754;28;20028;-68
2021/12/08 05:15:12;;;;;;;73.20;29.88;;;;;;;-2.16;96.18;99983.19;5089864;28;20038;-68
2021/12/08 05:17:50;;;;;;;72.72;29.92;;;;;;;-2.19;95.69;99985.94;5091146;28;20396;-68
2021/12/08 05:20:21;;;;;;;71.47;30.20;;;;;;;-2.19;95.85;99989.44;5092004;28;20106;-68
2021/12/08 05:22:53;;;;;;;73.70;30.23;;;;;;;-2.22;95.85;99979.06;5091506;28;20039;-69
2021/12/08 05:25:22;;;;;;;68.45;29.08;;;;;;;-2.22;95.69;99986.94;5091278;28;20036;-68
2021/12/08 05:27:50;;;;;;;64.20;28.48;;;;;;;-2.22;95.51;99994.81;5091657;28;20028;-68
2021/12/08 05:30:25;;;;;;;65.47;28.98;;;;;;;-2.26;95.29;99990.59;5091427;28;20103;-68
2021/12/08 05:32:52;;;;;;;67.68;29.48;;;;;;;-2.29;95.55;99974.94;5073185;28;20059;-68
2021/12/08 05:35:20;;;;;;;70.95;29.92;;;;;;;-2.27;95.58;99973.13;5083111;28;20038;-67
2021/12/08 05:37:46;;;;;;;68.35;29.92;;;;;;;-2.27;95.93;99967.88;5072680;28;20028;-68
2021/12/08 05:40:17;;;;;;;72.57;32.08;;;;;;;-2.26;96.96;99980.06;5090431;28;20411;-69
2021/12/08 05:42:44;;;;;;;74.93;30.80;;;;;;;-2.36;96.39;99960.38;5072345;28;20112;-68
2021/12/08 05:45:13;;;;;;;86.53;37.17;;;;;;;-2.29;96.34;99963.63;5072414;28;20119;-68
2021/12/08 05:47:40;;;;;;;88.97;38.15;;;;;;;-2.33;96.22;99962.03;5090659;28;20032;-68
2021/12/08 05:50:09;;;;;;;85.97;38.60;;;;;;;-2.29;95.98;99972.31;5090780;28;20032;-68
2021/12/08 05:52:35;;;;;;;83.45;35.17;;;;;;;-2.44;94.86;99960.72;5090744;28;20036;-68
2021/12/08 05:55:03;;;;;;;76.38;32.80;;;;;;;-2.38;94.73;99975.34;5090337;28;20026;-68
2021/12/08 05:57:39;;;;;;;77.00;33.05;;;;;;;-2.47;94.61;99958.22;5089981;28;20031;-68
2021/12/08 06:00:08;;;;;;;78.57;33.75;;;;;;;-2.40;94.57;99969.28;5090134;28;20028;-68
2021/12/08 06:02:36;;;;;;;75.63;32.33;;;;;;;-2.43;93.55;99967.66;5072169;28;20035;-67
2021/12/08 06:05:06;;;;;;;72.10;31.85;;;;;;;-2.45;93.27;99973.91;5072234;28;20032;-68
2021/12/08 06:07:31;;;;;;;76.72;33.03;;;;;;;-2.48;93.09;99976.66;5090347;28;20106;-68
2021/12/08 06:10:00;;;;;;;74.53;34.22;;;;;;;-2.54;92.61;99974.28;5089754;28;20135;-68
2021/12/08 06:12:27;;;;;;;73.38;32.63;;;;;;;-2.54;92.65;99982.97;5090445;28;20081;-69
2021/12/08 06:14:55;;;;;;;78.25;32.30;;;;;;;-2.54;92.73;99979.53;5072528;28;20490;-68
2021/12/08 06:17:25;;;;;;;80.07;33.00;;;;;;;-2.53;93.12;99987.34;5090836;28;20031;-68
2021/12/08 06:19:51;;;;;;;74.70;31.10;;;;;;;-2.54;93.30;99988.22;5072714;28;20111;-67
2021/12/08 06:22:19;;;;;;;72.63;31.40;;;;;;;-2.56;93.05;99979.56;5090791;28;20451;-68
2021/12/08 06:24:45;;;;;;;71.15;30.25;;;;;;;-2.57;93.56;99977.00;5072518;28;20130;-68
2021/12/08 06:27:11;;;;;;;72.30;29.73;;;;;;;-2.57;93.56;99980.50;5090596;28;20115;-68
2021/12/08 06:29:38;;;;;;;63.85;28.00;;;;;;;-2.63;93.25;99980.75;5092678;28;20468;-68
2021/12/08 06:32:06;;;;;;;79.88;31.65;;;;;;;-2.55;93.46;99997.03;5076702;28;20031;-67
2021/12/08 06:34:32;;;;;;;71.53;32.25;;;;;;;-2.55;93.88;100002.28;5094733;28;20035;-68
2021/12/08 06:37:15;;;;;;;78.85;31.83;;;;;;;-2.57;94.01;100005.88;5094448;28;20093;-67
2021/12/08 06:39:50;;;;;;;69.13;30.67;;;;;;;-2.62;94.08;100000.81;5075953;28;20565;-68
2021/12/08 06:42:28;;;;;;;81.18;32.03;;;;;;;-2.55;94.74;100007.53;5094443;28;20051;-68
2021/12/08 06:44:55;;;;;;;83.75;34.83;;;;;;;-2.51;95.19;100010.91;5070825;28;20040;-68
2021/12/08 06:47:23;;;;;;;69.93;31.90;;;;;;;-2.55;96.17;99997.03;5073110;28;20774;-67
2021/12/08 06:49:52;;;;;;;83.53;32.90;;;;;;;-2.50;96.02;99999.47;5075201;28;20476;-68
2021/12/08 06:52:38;;;;;;;77.45;33.33;;;;;;;-2.46;95.44;100008.91;5092846;28;20058;-68
2021/12/08 06:55:15;;;;;;;76.82;32.97;;;;;;;-2.47;95.76;100015.97;5092307;28;20024;-68
2021/12/08 06:57:46;;;;;;;90.40;35.10;;;;;;;-2.46;95.47;100009.78;5073883;28;20131;-68
2021/12/08 07:00:35;;;;;;;78.75;33.10;;;;;;;-2.48;95.67;99993.22;5092235;28;20028;-68
2021/12/08 07:08:29;;;;;;;88.85;33.90;;;;;;;-2.36;96.99;100000.63;5091617;28;19939;-69
2021/12/08 07:10:56;;;;;;;79.40;36.13;;;;;;;-2.37;97.05;99993.66;5091428;28;20536;-68
2021/12/08 07:13:26;;;;;;;77.90;34.50;;;;;;;-2.25;97.28;100012.44;5091830;28;20073;-69
2021/12/08 07:16:01;;;;;;;84.25;36.50;;;;;;;-2.22;97.27;100018.44;5073709;28;20584;-69
2021/12/08 07:18:39;;;;;;;77.57;33.53;;;;;;;-2.18;97.57;100013.91;5091859;28;20125;-68
2021/12/08 07:21:11;;;;;;;86.93;35.28;;;;;;;-2.20;97.90;99995.59;5089234;28;20024;-68
2021/12/08 07:23:43;;;;;;;83.40;34.53;;;;;;;-2.18;97.88;99996.38;5089933;28;20376;-69
2021/12/08 07:26:14;;;;;;;77.95;32.42;;;;;;;-2.05;97.97;100008.09;5074570;28;20476;-68
2021/12/08 07:28:41;;;;;;;79.65;33.00;;;;;;;-2.01;98.04;100000.91;5092786;28;20103;-69
2021/12/08 07:31:20;;;;;;;78.72;34.42;;;;;;;-1.98;98.24;99999.03;5092849;28;20035;-68
2021/12/08 07:33:48;;;;;;;90.40;38.13;;;;;;;-1.90;98.58;100001.34;5090605;28;20036;-69
2021/12/08 07:36:17;;;;;;;82.22;36.75;;;;;;;-1.92;99.11;99993.53;5093116;28;20031;-69
2021/12/08 07:38:46;;;;;;;80.47;32.50;;;;;;;-1.82;98.95;100002.72;5090282;28;20020;-69
2021/12/08 07:41:15;;;;;;;67.97;30.77;;;;;;;-1.76;99.47;100007.72;5074184;28;20069;-68
2021/12/08 07:43:50;;;;;;;72.82;32.22;;;;;;;-1.70;99.54;100006.59;5093305;28;20020;-68
2021/12/08 07:46:23;;;;;;;75.72;32.10;;;;;;;-1.60;99.77;100019.28;5093468;28;20494;-68
2021/12/08 07:48:55;;;;;;;77.82;33.03;;;;;;;-1.54;100.00;100012.88;5093432;28;20473;-68
2021/12/08 07:51:37;;;;;;;69.97;31.83;;;;;;;-1.50;100.00;100009.19;5093238;28;20032;-69
2021/12/08 07:54:04;;;;;;;83.22;33.47;;;;;;;-1.41;100.00;100011.44;5093188;28;20024;-67
2021/12/08 07:56:32;;;;;;;77.38;34.78;;;;;;;-1.40;100.00;100000.84;5093119;28;20028;-68
2021/12/08 07:59:01;;;;;;;76.90;33.05;;;;;;;-1.34;100.00;99990.06;5071816;28;20028;-65
2021/12/08 08:01:36;;;;;;;77.03;35.30;;;;;;;-1.25;100.00;99994.91;5074578;28;20518;-65
2021/12/08 08:04:04;;;;;;;76.53;31.35;;;;;;;-1.18;100.00;100004.22;5092666;28;20031;-65
2021/12/08 08:06:34;;;;;;;83.47;34.28;;;;;;;-1.09;100.00;100014.34;5092616;28;20024;-65
2021/12/08 08:09:00;;;;;;;80.85;33.47;;;;;;;-1.05;100.00;100010.63;5092660;28;20062;-65
2021/12/08 08:11:31;;;;;;;79.22;34.08;;;;;;;-0.96;100.00;100001.47;5092559;28;20059;-64
2021/12/08 08:13:58;;;;;;;76.40;34.38;;;;;;;-0.95;100.00;100005.78;5092610;28;20039;-66
2021/12/08 08:16:29;;;;;;;77.07;32.78;;;;;;;-0.89;100.00;100006.38;5074590;28;20028;-65
2021/12/08 08:19:04;;;;;;;83.55;35.95;;;;;;;-0.83;100.00;100011.34;5092826;28;20056;-65
2021/12/08 08:21:32;;;;;;;74.18;32.17;;;;;;;-0.77;100.00;100012.84;5074390;28;20027;-65
2021/12/08 08:24:00;;;;;;;74.97;34.20;;;;;;;-0.72;100.00;100005.56;5092413;28;20456;-65
2021/12/08 08:26:27;;;;;;;67.95;31.60;;;;;;;-0.63;100.00;100005.13;5092487;28;20020;-65
2021/12/08 08:28:53;;;;;;;75.82;31.63;;;;;;;-0.64;100.00;99990.28;5092430;28;20028;-65
2021/12/08 08:31:41;;;;;;;72.28;32.13;;;;;;;-0.54;100.00;100002.91;5092169;28;20034;-64
2021/12/08 08:34:08;;;;;;;74.65;32.58;;;;;;;-0.44;100.00;100006.84;5092275;28;20070;-65
2021/12/08 08:36:38;;;;;;;80.13;33.58;;;;;;;-0.40;100.00;99996.97;5092179;28;20020;-65
2021/12/08 08:39:18;;;;;;;77.53;33.28;;;;;;;-0.26;100.00;100015.59;5091989;28;20030;-65
2021/12/08 08:41:43;;;;;;;76.47;34.70;;;;;;;-0.16;100.00;100007.16;5073805;28;20046;-65
2021/12/08 08:44:26;;;;;;;76.70;33.95;;;;;;;-0.14;100.00;99997.41;5091955;28;20032;-65
2021/12/08 08:46:55;;;;;;;80.82;34.25;;;;;;;-0.03;100.00;100002.16;5091978;28;20030;-65
2021/12/08 08:49:24;;;;;;;80.20;34.78;;;;;;;0.06;100.00;100006.94;5091676;28;20032;-65
2021/12/08 08:52:00;;;;;;;79.18;35.58;;;;;;;0.17;100.00;100006.41;5073454;28;20054;-66
2021/12/08 08:54:31;;;;;;;81.60;35.53;;;;;;;0.23;100.00;100009.63;5091520;28;20099;-64
2021/12/08 08:57:03;;;;;;;75.80;36.58;;;;;;;0.34;100.00;100007.25;5091902;28;20048;-66
2021/12/08 08:59:32;;;;;;;83.43;37.75;;;;;;;0.42;100.00;100002.44;5091701;28;20032;-66
2021/12/08 09:02:06;;;;;;;89.57;38.65;;;;;;;0.55;100.00;100007.94;5091496;28;20502;-66
2021/12/08 09:04:34;;;;;;;;;;;;;;;0.59;100.00;99999.78;5092301;28;20495;-65
2021/12/08 09:07:04;;;;;;;99.32;41.58;;;;;;;0.65;100.00;100003.88;5073189;28;19962;-66
2021/12/08 09:09:38;;;;;;;91.15;40.80;;;;;;;0.81;100.00;100007.44;5086304;28;20036;-65
2021/12/08 09:12:11;;;;;;;93.28;40.25;;;;;;;0.86;100.00;99994.81;5089931;28;20147;-66
2021/12/08 09:14:52;;;;;;;85.43;39.08;;;;;;;0.94;100.00;99996.16;5091579;28;20058;-65
2021/12/08 09:17:24;;;;;;;89.30;39.85;;;;;;;1.06;100.00;99991.97;5073089;28;20491;-65
2021/12/08 09:19:59;;;;;;;88.65;40.47;;;;;;;1.13;100.00;99999.47;5072979;28;20412;-66
2021/12/08 09:22:42;;;;;;;83.07;38.83;;;;;;;1.20;100.00;99990.28;5091419;28;20028;-66
2021/12/08 09:25:48;;;;;;;88.53;39.33;;;;;;;1.31;100.00;99987.03;5067935;28;20391;-65
2021/12/08 09:28:30;;;;;;;85.93;40.42;;;;;;;1.40;99.45;99987.41;5071170;28;20509;-64
2021/12/08 09:31:07;;;;;;;94.28;43.08;;;;;;;1.48;98.93;99979.88;5081163;28;20021;-64
2021/12/08 09:33:39;;;;;;;98.00;44.38;;;;;;;1.56;98.70;99974.16;5084151;28;20086;-64
2021/12/08 09:36:16;;;;;;;93.18;41.63;;;;;;;1.62;97.98;99966.72;5077597;28;20067;-64
2021/12/08 09:38:46;;;;;;;89.40;42.38;;;;;;;1.73;97.77;99968.75;5084162;28;20495;-64
2021/12/08 09:41:18;;;;;;;79.22;34.80;;;;;;;1.81;97.34;99964.72;5083583;28;20033;-64
2021/12/08 09:43:52;;;;;;;76.05;34.92;;;;;;;1.87;96.49;99967.03;5084952;28;20028;-65
2021/12/08 09:46:22;;;;;;;66.97;32.95;;;;;;;1.89;96.30;99957.22;5079993;28;20036;-65
2021/12/08 09:48:49;;;;;;;60.45;29.35;;;;;;;2.03;95.61;99966.97;5083075;28;20036;-66
2021/12/08 09:51:20;;;;;;;58.13;28.85;;;;;;;2.07;94.72;99948.19;5071800;28;20105;-66
2021/12/08 09:53:46;;;;;;;52.25;26.40;;;;;;;2.09;93.93;99943.69;5087691;28;20020;-64
2021/12/08 09:56:12;;;;;;;50.78;24.58;;;;;;;2.16;93.32;99939.72;5087538;28;20551;-65
2021/12/08 09:58:39;;;;;;;49.13;23.90;;;;;;;2.18;92.05;99929.03;5072799;28;20056;-65
2021/12/08 10:01:06;;;;;;;41.92;20.92;;;;;;;2.29;91.37;99940.69;5067388;28;20094;-64
2021/12/08 10:03:33;;;;;;;43.00;21.25;;;;;;;2.36;90.67;99946.47;5067184;28;20051;-65
2021/12/08 10:06:00;;;;;;;44.47;19.92;;;;;;;2.46;89.76;99946.75;5068922;28;20028;-64
2021/12/08 10:08:26;;;;;;;43.17;20.92;;;;;;;2.51;88.85;99932.28;5076064;28;20080;-64
2021/12/08 10:10:52;;;;;;;38.65;20.48;;;;;;;2.53;87.78;99930.41;5067054;28;20111;-64
2021/12/08 10:13:18;;;;;;;44.28;21.35;;;;;;;2.61;87.55;99935.25;5069985;28;20095;-65
2021/12/08 10:15:43;;;;;;;45.25;21.40;;;;;;;2.67;87.48;99935.69;5068460;28;20021;-64
2021/12/08 10:18:11;;;;;;;43.08;21.73;;;;;;;2.72;87.35;99936.28;5076486;28;20086;-64
2021/12/08 10:20:41;;;;;;;41.70;22.70;;;;;;;2.72;87.31;99925.69;5087079;28;20475;-65
2021/12/08 10:23:28;;;;;;;44.85;22.33;;;;;;;2.83;87.44;99938.28;5072971;28;20501;-65
2021/12/08 10:26:07;;;;;;;42.75;22.13;;;;;;;2.85;87.61;99923.13;5066856;28;20028;-65
2021/12/08 10:28:45;;;;;;;45.80;22.88;;;;;;;2.93;87.76;99932.28;5066697;28;20495;-65
2021/12/08 10:31:28;;;;;;;45.67;22.80;;;;;;;2.99;87.60;99934.53;5066663;28;20064;-65
2021/12/08 10:34:04;;;;;;;49.28;23.90;;;;;;;3.05;87.29;99928.00;5066655;28;20021;-64
2021/12/08 10:39:11;;;;;;;42.88;22.88;;;;;;;3.08;86.68;99915.44;5060336;28;20039;-65
2021/12/08 10:42:11;;;;;;;41.75;23.00;;;;;;;3.22;86.41;99919.84;5072060;28;20103;-65
2021/12/08 10:45:15;;;;;;;45.83;22.63;;;;;;;3.28;86.42;99920.28;5058351;28;20036;-65
2021/12/08 10:47:49;;;;;;;47.40;22.98;;;;;;;3.32;85.83;99900.59;5053294;28;20037;-65
2021/12/08 10:56:13;;;;;;;45.75;23.65;;;;;;;3.45;84.08;99895.34;5055929;28;20511;-66
2021/12/08 10:58:47;;;;;;;45.78;23.58;;;;;;;3.51;84.27;99892.31;5069826;28;20490;-66
2021/12/08 11:01:16;;;;;;;54.27;25.63;;;;;;;3.57;84.13;99890.09;5054332;28;20051;-65
2021/12/08 11:03:43;;;;;;;54.55;26.77;;;;;;;3.60;83.61;99891.69;5065142;28;20028;-65
2021/12/08 11:06:13;;;;;;;50.20;25.83;;;;;;;3.65;83.88;99878.97;5072704;28;20028;-64
2021/12/08 11:08:44;;;;;;;48.30;25.85;;;;;;;3.68;83.84;99878.78;5058552;28;20028;-64
2021/12/08 11:11:13;;;;;;;53.55;26.23;;;;;;;3.67;84.05;99864.66;5072283;28;20036;-64
2021/12/08 11:13:45;;;;;;;52.58;25.42;;;;;;;3.70;83.91;99874.19;5053522;28;20075;-64
2021/12/08 11:16:12;;;;;;;46.78;25.60;;;;;;;3.81;83.74;99877.84;5054049;28;20039;-64
2021/12/08 11:18:41;;;;;;;50.30;26.30;;;;;;;3.82;83.57;99866.28;5051547;28;20497;-66
2021/12/08 11:21:16;;;;;;;49.35;25.60;;;;;;;3.85;83.75;99863.44;5057987;28;20090;-66
2021/12/08 11:23:46;;;;;;;51.47;25.92;;;;;;;3.91;83.54;99870.97;5071172;28;20415;-66
2021/12/08 11:26:43;;;;;;;49.08;25.60;;;;;;;3.94;83.20;99862.78;5071225;28;20166;-65
2021/12/08 11:29:14;;;;;;;51.00;24.55;;;;;;;3.96;83.26;99860.03;5063944;28;20044;-65
2021/12/08 11:31:44;;;;;;;49.08;24.83;;;;;;;3.99;82.92;99854.53;5072571;28;20035;-66
2021/12/08 11:34:28;;;;;;;46.95;25.98;;;;;;;3.99;82.78;99846.56;5059321;28;20547;-66
2021/12/08 11:37:07;;;;;;;48.92;24.75;;;;;;;4.02;82.85;99846.34;5051270;28;20025;-66
2021/12/08 11:39:42;;;;;;;51.50;25.65;;;;;;;4.05;82.73;99851.44;5059865;28;20025;-65
2021/12/08 11:42:24;;;;;;;49.15;25.60;;;;;;;4.03;82.71;99840.94;5052078;28;20035;-66
2021/12/08 11:44:55;;;;;;;49.67;25.10;;;;;;;4.12;82.79;99852.72;5071770;28;20027;-66
2021/12/08 11:47:28;;;;;;;54.60;26.95;;;;;;;4.16;82.89;99863.03;5064071;28;20031;-66
2021/12/08 11:49:57;;;;;;;53.20;25.52;;;;;;;4.16;82.40;99856.88;5070051;28;20024;-66
2021/12/08 11:52:29;;;;;;;45.38;24.13;;;;;;;4.22;82.36;99856.44;5072069;28;20016;-66
2021/12/08 11:55:01;;;;;;;50.15;25.38;;;;;;;4.22;82.17;99851.13;5070008;28;20429;-66
2021/12/08 11:57:36;;;;;;;53.05;25.58;;;;;;;4.24;82.06;99850.09;5054780;28;20043;-66
2021/12/08 12:00:10;;;;;;;46.60;24.65;;;;;;;4.22;81.89;99838.72;5051922;28;20790;-66
2021/12/08 12:02:44;;;;;;;47.85;26.02;;;;;;;4.25;81.87;99842.97;5052103;28;20537;-66
2021/12/08 12:05:16;;;;;;;51.20;26.30;;;;;;;4.21;82.10;99831.72;5054395;28;20444;-65
2021/12/08 12:07:42;;;;;;;47.28;25.45;;;;;;;4.31;81.99;99839.88;5059901;28;20041;-65
2021/12/08 12:10:10;;;;;;;47.05;24.13;;;;;;;4.32;82.08;99845.09;5051569;28;20553;-66
2021/12/08 12:12:37;;;;;;;50.10;25.52;;;;;;;4.30;81.79;99832.88;5054780;28;20462;-66
2021/12/08 12:15:07;;;;;;;50.30;25.10;;;;;;;4.33;81.98;99840.63;5063968;28;20556;-66
2021/12/08 12:17:33;;;;;;;48.50;25.63;;;;;;;4.33;82.08;99830.84;5051775;28;20033;-66
2021/12/08 12:20:04;;;;;;;50.63;26.67;;;;;;;4.38;81.84;99833.19;5051410;28;20165;-67
2021/12/08 12:22:42;;;;;;;47.25;25.88;;;;;;;4.42;81.58;99829.38;5051410;28;20024;-66
2021/12/08 12:25:26;;;;;;;47.50;26.08;;;;;;;4.45;81.72;99822.03;5049701;28;20048;-66